sensor_id;sensor_type;location;lat;lon;timestamp;P1;durP1;ratioP1;P2;durP2;ratioP2
51236;SDS011;37312;47.550;18.818;2022-12-13T00:01:12;13.88;;;8.23;;
51236;SDS011;37312;47.550;18.818;2022-12-13T00:03:39;12.07;;;7.60;;
51236;SDS011;37312;47.550;18.818;2022-12-13T00:06:05;9.52;;;7.35;;
51236;SDS011;37312;47.550;18.818;2022-12-13T00:08:33;10.07;;;6.43;;
51236;SDS011;37312;47.550;18.818;2022-12-13T00:10:59;9.75;;;6.65;;
51236;SDS011;37312;47.550;18.818;2022-12-13T00:13:26;11.75;;;7.53;;
51236;SDS011;37312;47.550;18.818;2022-12-13T00:15:56;11.27;;;8.95;;
51236;SDS011;37312;47.550;18.818;2022-12-13T00:18:28;11.93;;;6.90;;
51236;SDS011;37312;47.550;18.818;2022-12-13T00:20:54;11.12;;;7.50;;
51236;SDS011;37312;47.550;18.818;2022-12-13T00:23:20;11.88;;;9.27;;
51236;SDS011;37312;47.550;18.818;2022-12-13T00:28:12;15.30;;;8.13;;
51236;SDS011;37312;47.550;18.818;2022-12-13T00:30:39;10.25;;;7.28;;
51236;SDS011;37312;47.550;18.818;2022-12-13T00:35:32;9.70;;;6.15;;
51236;SDS011;37312;47.550;18.818;2022-12-13T00:37:58;9.70;;;6.43;;
51236;SDS011;37312;47.550;18.818;2022-12-13T00:40:26;13.45;;;9.85;;
51236;SDS011;37312;47.550;18.818;2022-12-13T00:42:53;11.75;;;8.63;;
51236;SDS011;37312;47.550;18.818;2022-12-13T00:45:19;10.38;;;9.32;;
51236;SDS011;37312;47.550;18.818;2022-12-13T00:47:45;11.25;;;7.85;;
51236;SDS011;37312;47.550;18.818;2022-12-13T00:50:11;9.05;;;8.15;;
51236;SDS011;37312;47.550;18.818;2022-12-13T00:52:37;10.57;;;8.45;;
51236;SDS011;37312;47.550;18.818;2022-12-13T00:55:03;14.52;;;7.62;;
51236;SDS011;37312;47.550;18.818;2022-12-13T00:59:55;11.85;;;6.32;;
51236;SDS011;37312;47.550;18.818;2022-12-13T01:02:21;10.65;;;5.72;;
51236;SDS011;37312;47.550;18.818;2022-12-13T01:04:50;11.15;;;7.40;;
51236;SDS011;37312;47.550;18.818;2022-12-13T01:07:16;12.80;;;7.10;;
51236;SDS011;37312;47.550;18.818;2022-12-13T01:09:42;15.07;;;7.95;;
51236;SDS011;37312;47.550;18.818;2022-12-13T01:12:09;8.55;;;6.70;;
51236;SDS011;37312;47.550;18.818;2022-12-13T01:14:36;8.88;;;7.40;;
51236;SDS011;37312;47.550;18.818;2022-12-13T01:17:04;7.72;;;6.43;;
51236;SDS011;37312;47.550;18.818;2022-12-13T01:19:30;12.90;;;9.18;;
51236;SDS011;37312;47.550;18.818;2022-12-13T01:21:58;10.45;;;7.43;;
51236;SDS011;37312;47.550;18.818;2022-12-13T01:24:25;12.30;;;9.55;;
51236;SDS011;37312;47.550;18.818;2022-12-13T01:26:51;12.60;;;7.75;;
51236;SDS011;37312;47.550;18.818;2022-12-13T01:29:19;10.93;;;7.05;;
51236;SDS011;37312;47.550;18.818;2022-12-13T01:31:45;16.77;;;8.02;;
51236;SDS011;37312;47.550;18.818;2022-12-13T01:34:13;10.85;;;6.10;;
51236;SDS011;37312;47.550;18.818;2022-12-13T01:36:41;11.45;;;8.60;;
51236;SDS011;37312;47.550;18.818;2022-12-13T01:39:09;12.25;;;9.00;;
51236;SDS011;37312;47.550;18.818;2022-12-13T01:41:37;9.05;;;7.28;;
51236;SDS011;37312;47.550;18.818;2022-12-13T01:46:30;13.57;;;7.77;;
51236;SDS011;37312;47.550;18.818;2022-12-13T01:49:03;11.20;;;8.18;;
51236;SDS011;37312;47.550;18.818;2022-12-13T01:51:41;10.95;;;6.57;;
51236;SDS011;37312;47.550;18.818;2022-12-13T01:54:12;12.02;;;6.87;;
51236;SDS011;37312;47.550;18.818;2022-12-13T01:56:43;10.32;;;6.53;;
51236;SDS011;37312;47.550;18.818;2022-12-13T01:59:14;12.15;;;6.85;;
51236;SDS011;37312;47.550;18.818;2022-12-13T02:01:42;12.35;;;8.07;;
51236;SDS011;37312;47.550;18.818;2022-12-13T02:04:08;17.40;;;8.57;;
51236;SDS011;37312;47.550;18.818;2022-12-13T02:06:35;8.48;;;5.93;;
51236;SDS011;37312;47.550;18.818;2022-12-13T02:09:05;7.97;;;7.22;;
51236;SDS011;37312;47.550;18.818;2022-12-13T02:11:36;10.65;;;6.57;;
51236;SDS011;37312;47.550;18.818;2022-12-13T02:14:05;10.38;;;7.00;;
51236;SDS011;37312;47.550;18.818;2022-12-13T02:16:42;12.95;;;9.98;;
51236;SDS011;37312;47.550;18.818;2022-12-13T02:27:59;8.35;;;7.45;;
51236;SDS011;37312;47.550;18.818;2022-12-13T02:30:50;12.70;;;7.55;;
51236;SDS011;37312;47.550;18.818;2022-12-13T02:38:57;7.72;;;5.87;;
51236;SDS011;37312;47.550;18.818;2022-12-13T02:41:47;13.50;;;7.57;;
51236;SDS011;37312;47.550;18.818;2022-12-13T02:46:42;9.10;;;5.72;;
51236;SDS011;37312;47.550;18.818;2022-12-13T02:49:16;11.75;;;9.55;;
51236;SDS011;37312;47.550;18.818;2022-12-13T02:51:45;18.10;;;8.98;;
51236;SDS011;37312;47.550;18.818;2022-12-13T02:54:12;10.07;;;7.15;;
51236;SDS011;37312;47.550;18.818;2022-12-13T02:56:38;11.05;;;8.52;;
51236;SDS011;37312;47.550;18.818;2022-12-13T02:59:06;11.70;;;6.65;;
51236;SDS011;37312;47.550;18.818;2022-12-13T03:05:00;11.80;;;7.85;;
51236;SDS011;37312;47.550;18.818;2022-12-13T03:11:06;11.10;;;6.45;;
51236;SDS011;37312;47.550;18.818;2022-12-13T03:13:52;13.65;;;8.63;;
51236;SDS011;37312;47.550;18.818;2022-12-13T03:19:24;15.83;;;8.10;;
51236;SDS011;37312;47.550;18.818;2022-12-13T03:21:50;9.82;;;8.07;;
51236;SDS011;37312;47.550;18.818;2022-12-13T03:24:17;11.73;;;10.23;;
51236;SDS011;37312;47.550;18.818;2022-12-13T03:26:44;11.60;;;7.45;;
51236;SDS011;37312;47.550;18.818;2022-12-13T03:29:12;13.87;;;8.50;;
51236;SDS011;37312;47.550;18.818;2022-12-13T03:31:39;10.40;;;7.35;;
51236;SDS011;37312;47.550;18.818;2022-12-13T03:34:05;13.85;;;9.13;;
51236;SDS011;37312;47.550;18.818;2022-12-13T03:36:31;11.77;;;9.93;;
51236;SDS011;37312;47.550;18.818;2022-12-13T03:41:24;10.37;;;8.97;;
51236;SDS011;37312;47.550;18.818;2022-12-13T03:43:59;11.10;;;8.00;;
51236;SDS011;37312;47.550;18.818;2022-12-13T03:46:28;10.55;;;7.30;;
51236;SDS011;37312;47.550;18.818;2022-12-13T03:48:54;9.70;;;7.85;;
51236;SDS011;37312;47.550;18.818;2022-12-13T03:51:20;14.13;;;9.38;;
51236;SDS011;37312;47.550;18.818;2022-12-13T03:53:46;13.43;;;9.40;;
51236;SDS011;37312;47.550;18.818;2022-12-13T03:56:12;13.77;;;10.82;;
51236;SDS011;37312;47.550;18.818;2022-12-13T03:58:38;12.82;;;8.50;;
51236;SDS011;37312;47.550;18.818;2022-12-13T04:01:07;14.20;;;7.77;;
51236;SDS011;37312;47.550;18.818;2022-12-13T04:03:35;14.75;;;8.98;;
51236;SDS011;37312;47.550;18.818;2022-12-13T04:06:02;17.10;;;7.63;;
51236;SDS011;37312;47.550;18.818;2022-12-13T04:08:29;10.67;;;6.33;;
51236;SDS011;37312;47.550;18.818;2022-12-13T04:10:55;10.65;;;9.35;;
51236;SDS011;37312;47.550;18.818;2022-12-13T04:13:21;12.02;;;8.68;;
51236;SDS011;37312;47.550;18.818;2022-12-13T04:15:59;10.70;;;7.60;;
51236;SDS011;37312;47.550;18.818;2022-12-13T04:18:29;15.10;;;7.80;;
51236;SDS011;37312;47.550;18.818;2022-12-13T04:20:55;11.33;;;9.27;;
51236;SDS011;37312;47.550;18.818;2022-12-13T04:23:22;12.67;;;7.07;;
51236;SDS011;37312;47.550;18.818;2022-12-13T04:25:48;11.05;;;9.88;;
51236;SDS011;37312;47.550;18.818;2022-12-13T04:28:14;10.90;;;7.10;;
51236;SDS011;37312;47.550;18.818;2022-12-13T04:30:40;10.50;;;8.63;;
51236;SDS011;37312;47.550;18.818;2022-12-13T04:33:06;9.88;;;7.82;;
51236;SDS011;37312;47.550;18.818;2022-12-13T04:35:32;16.33;;;9.73;;
51236;SDS011;37312;47.550;18.818;2022-12-13T04:37:58;8.82;;;5.35;;
51236;SDS011;37312;47.550;18.818;2022-12-13T04:40:23;11.73;;;7.80;;
51236;SDS011;37312;47.550;18.818;2022-12-13T04:42:49;9.57;;;7.07;;
51236;SDS011;37312;47.550;18.818;2022-12-13T04:45:16;9.52;;;8.15;;
51236;SDS011;37312;47.550;18.818;2022-12-13T04:47:42;17.07;;;7.97;;
51236;SDS011;37312;47.550;18.818;2022-12-13T04:50:09;11.90;;;6.20;;
51236;SDS011;37312;47.550;18.818;2022-12-13T04:52:35;10.07;;;7.23;;
51236;SDS011;37312;47.550;18.818;2022-12-13T04:57:28;8.37;;;5.97;;
51236;SDS011;37312;47.550;18.818;2022-12-13T04:59:54;9.30;;;6.10;;
51236;SDS011;37312;47.550;18.818;2022-12-13T05:02:20;7.78;;;5.53;;
51236;SDS011;37312;47.550;18.818;2022-12-13T05:04:45;8.25;;;6.53;;
51236;SDS011;37312;47.550;18.818;2022-12-13T05:07:11;8.00;;;6.85;;
51236;SDS011;37312;47.550;18.818;2022-12-13T05:09:38;12.45;;;7.50;;
51236;SDS011;37312;47.550;18.818;2022-12-13T05:12:03;9.45;;;5.70;;
51236;SDS011;37312;47.550;18.818;2022-12-13T05:14:30;12.15;;;7.78;;
51236;SDS011;37312;47.550;18.818;2022-12-13T05:16:56;10.63;;;7.70;;
51236;SDS011;37312;47.550;18.818;2022-12-13T05:19:23;13.07;;;8.83;;
51236;SDS011;37312;47.550;18.818;2022-12-13T05:21:48;12.23;;;8.52;;
51236;SDS011;37312;47.550;18.818;2022-12-13T05:24:14;8.48;;;5.87;;
51236;SDS011;37312;47.550;18.818;2022-12-13T05:26:40;7.62;;;6.32;;
51236;SDS011;37312;47.550;18.818;2022-12-13T05:29:06;10.25;;;7.37;;
51236;SDS011;37312;47.550;18.818;2022-12-13T05:31:32;18.17;;;9.52;;
51236;SDS011;37312;47.550;18.818;2022-12-13T05:33:58;10.57;;;8.32;;
51236;SDS011;37312;47.550;18.818;2022-12-13T05:36:24;9.95;;;8.63;;
51236;SDS011;37312;47.550;18.818;2022-12-13T05:38:50;11.45;;;7.07;;
51236;SDS011;37312;47.550;18.818;2022-12-13T05:41:18;12.13;;;9.47;;
51236;SDS011;37312;47.550;18.818;2022-12-13T05:43:47;13.33;;;7.60;;
51236;SDS011;37312;47.550;18.818;2022-12-13T05:46:13;15.73;;;12.37;;
51236;SDS011;37312;47.550;18.818;2022-12-13T05:48:40;11.12;;;8.23;;
51236;SDS011;37312;47.550;18.818;2022-12-13T05:53:32;9.33;;;7.57;;
51236;SDS011;37312;47.550;18.818;2022-12-13T05:55:58;10.82;;;6.87;;
51236;SDS011;37312;47.550;18.818;2022-12-13T05:58:24;12.13;;;7.63;;
51236;SDS011;37312;47.550;18.818;2022-12-13T06:00:50;12.05;;;10.02;;
51236;SDS011;37312;47.550;18.818;2022-12-13T06:03:16;15.95;;;10.18;;
51236;SDS011;37312;47.550;18.818;2022-12-13T06:05:42;12.27;;;8.60;;
51236;SDS011;37312;47.550;18.818;2022-12-13T06:08:09;13.25;;;8.60;;
51236;SDS011;37312;47.550;18.818;2022-12-13T06:10:35;8.77;;;6.43;;
51236;SDS011;37312;47.550;18.818;2022-12-13T06:13:02;11.50;;;8.25;;
51236;SDS011;37312;47.550;18.818;2022-12-13T06:15:28;13.30;;;7.87;;
51236;SDS011;37312;47.550;18.818;2022-12-13T06:17:54;16.10;;;9.35;;
51236;SDS011;37312;47.550;18.818;2022-12-13T06:20:20;11.30;;;6.78;;
51236;SDS011;37312;47.550;18.818;2022-12-13T06:22:47;14.20;;;10.30;;
51236;SDS011;37312;47.550;18.818;2022-12-13T06:25:13;8.68;;;6.45;;
51236;SDS011;37312;47.550;18.818;2022-12-13T06:27:39;11.45;;;10.35;;
51236;SDS011;37312;47.550;18.818;2022-12-13T06:30:05;13.98;;;7.72;;
51236;SDS011;37312;47.550;18.818;2022-12-13T06:32:31;17.33;;;10.87;;
51236;SDS011;37312;47.550;18.818;2022-12-13T06:34:57;12.25;;;8.52;;
51236;SDS011;37312;47.550;18.818;2022-12-13T06:37:23;18.77;;;11.98;;
51236;SDS011;37312;47.550;18.818;2022-12-13T06:39:49;15.10;;;9.70;;
51236;SDS011;37312;47.550;18.818;2022-12-13T06:42:16;19.45;;;13.62;;
51236;SDS011;37312;47.550;18.818;2022-12-13T06:44:43;14.03;;;9.27;;
51236;SDS011;37312;47.550;18.818;2022-12-13T06:47:09;41.92;;;36.28;;
51236;SDS011;37312;47.550;18.818;2022-12-13T06:52:01;24.93;;;15.07;;
51236;SDS011;37312;47.550;18.818;2022-12-13T06:54:28;22.87;;;17.30;;
51236;SDS011;37312;47.550;18.818;2022-12-13T06:56:53;22.85;;;15.15;;
51236;SDS011;37312;47.550;18.818;2022-12-13T06:59:20;21.65;;;12.65;;
51236;SDS011;37312;47.550;18.818;2022-12-13T07:01:45;17.73;;;11.88;;
51236;SDS011;37312;47.550;18.818;2022-12-13T07:04:12;11.05;;;9.07;;
51236;SDS011;37312;47.550;18.818;2022-12-13T07:06:37;17.77;;;10.27;;
51236;SDS011;37312;47.550;18.818;2022-12-13T07:09:03;14.05;;;11.23;;
51236;SDS011;37312;47.550;18.818;2022-12-13T07:11:30;23.35;;;11.70;;
51236;SDS011;37312;47.550;18.818;2022-12-13T07:13:57;18.40;;;12.30;;
51236;SDS011;37312;47.550;18.818;2022-12-13T07:16:24;24.70;;;10.38;;
51236;SDS011;37312;47.550;18.818;2022-12-13T07:18:55;20.80;;;11.15;;
51236;SDS011;37312;47.550;18.818;2022-12-13T07:21:22;15.15;;;10.55;;
51236;SDS011;37312;47.550;18.818;2022-12-13T07:23:49;17.02;;;10.45;;
51236;SDS011;37312;47.550;18.818;2022-12-13T07:26:15;18.50;;;12.13;;
51236;SDS011;37312;47.550;18.818;2022-12-13T07:28:41;32.85;;;13.52;;
51236;SDS011;37312;47.550;18.818;2022-12-13T07:31:08;14.85;;;10.52;;
51236;SDS011;37312;47.550;18.818;2022-12-13T07:33:35;21.55;;;12.35;;
51236;SDS011;37312;47.550;18.818;2022-12-13T07:36:04;19.98;;;10.30;;
51236;SDS011;37312;47.550;18.818;2022-12-13T07:38:34;20.05;;;12.95;;
51236;SDS011;37312;47.550;18.818;2022-12-13T07:41:02;22.08;;;13.25;;
51236;SDS011;37312;47.550;18.818;2022-12-13T07:43:28;17.30;;;12.55;;
51236;SDS011;37312;47.550;18.818;2022-12-13T07:45:57;18.25;;;14.05;;
51236;SDS011;37312;47.550;18.818;2022-12-13T07:48:25;26.95;;;14.13;;
51236;SDS011;37312;47.550;18.818;2022-12-13T07:50:51;14.90;;;10.95;;
51236;SDS011;37312;47.550;18.818;2022-12-13T07:53:18;15.95;;;12.45;;
51236;SDS011;37312;47.550;18.818;2022-12-13T07:55:44;21.62;;;14.05;;
51236;SDS011;37312;47.550;18.818;2022-12-13T07:58:11;26.95;;;13.48;;
51236;SDS011;37312;47.550;18.818;2022-12-13T08:00:43;29.15;;;26.02;;
51236;SDS011;37312;47.550;18.818;2022-12-13T08:03:10;29.02;;;25.70;;
51236;SDS011;37312;47.550;18.818;2022-12-13T08:05:37;22.20;;;20.02;;
51236;SDS011;37312;47.550;18.818;2022-12-13T08:08:04;20.65;;;18.65;;
51236;SDS011;37312;47.550;18.818;2022-12-13T08:10:31;20.35;;;18.25;;
51236;SDS011;37312;47.550;18.818;2022-12-13T08:12:57;19.35;;;17.25;;
51236;SDS011;37312;47.550;18.818;2022-12-13T08:15:27;24.15;;;21.05;;
51236;SDS011;37312;47.550;18.818;2022-12-13T08:20:24;20.77;;;18.23;;
51236;SDS011;37312;47.550;18.818;2022-12-13T08:22:54;20.88;;;18.55;;
51236;SDS011;37312;47.550;18.818;2022-12-13T08:25:21;20.30;;;18.23;;
51236;SDS011;37312;47.550;18.818;2022-12-13T08:27:47;22.17;;;19.55;;
51236;SDS011;37312;47.550;18.818;2022-12-13T08:30:13;25.30;;;22.52;;
51236;SDS011;37312;47.550;18.818;2022-12-13T08:32:39;27.80;;;21.58;;
51236;SDS011;37312;47.550;18.818;2022-12-13T08:35:05;22.00;;;19.60;;
51236;SDS011;37312;47.550;18.818;2022-12-13T08:37:31;20.45;;;18.35;;
51236;SDS011;37312;47.550;18.818;2022-12-13T08:39:57;20.60;;;18.30;;
51236;SDS011;37312;47.550;18.818;2022-12-13T08:44:50;23.05;;;18.92;;
51236;SDS011;37312;47.550;18.818;2022-12-13T08:47:18;23.17;;;20.75;;
51236;SDS011;37312;47.550;18.818;2022-12-13T08:49:45;18.02;;;16.30;;
51236;SDS011;37312;47.550;18.818;2022-12-13T08:52:11;19.10;;;15.95;;
51236;SDS011;37312;47.550;18.818;2022-12-13T08:54:37;21.30;;;16.55;;
51236;SDS011;37312;47.550;18.818;2022-12-13T08:57:03;17.62;;;15.80;;
51236;SDS011;37312;47.550;18.818;2022-12-13T08:59:29;17.45;;;15.43;;
51236;SDS011;37312;47.550;18.818;2022-12-13T09:01:56;16.40;;;14.82;;
51236;SDS011;37312;47.550;18.818;2022-12-13T09:04:21;15.88;;;14.38;;
51236;SDS011;37312;47.550;18.818;2022-12-13T09:06:47;16.40;;;14.65;;
51236;SDS011;37312;47.550;18.818;2022-12-13T09:09:13;16.95;;;14.87;;
51236;SDS011;37312;47.550;18.818;2022-12-13T09:11:39;14.13;;;13.02;;
51236;SDS011;37312;47.550;18.818;2022-12-13T09:14:05;16.65;;;14.38;;
51236;SDS011;37312;47.550;18.818;2022-12-13T09:16:32;15.38;;;13.85;;
51236;SDS011;37312;47.550;18.818;2022-12-13T09:19:01;13.98;;;12.75;;
51236;SDS011;37312;47.550;18.818;2022-12-13T09:21:28;17.45;;;13.75;;
51236;SDS011;37312;47.550;18.818;2022-12-13T09:23:54;14.80;;;13.23;;
51236;SDS011;37312;47.550;18.818;2022-12-13T09:26:20;15.15;;;13.75;;
51236;SDS011;37312;47.550;18.818;2022-12-13T09:28:46;15.73;;;14.13;;
51236;SDS011;37312;47.550;18.818;2022-12-13T09:31:13;13.82;;;12.45;;
51236;SDS011;37312;47.550;18.818;2022-12-13T09:33:44;14.18;;;12.75;;
51236;SDS011;37312;47.550;18.818;2022-12-13T09:36:12;13.23;;;12.07;;
51236;SDS011;37312;47.550;18.818;2022-12-13T09:38:40;16.25;;;13.90;;
51236;SDS011;37312;47.550;18.818;2022-12-13T09:46:22;15.88;;;13.25;;
51236;SDS011;37312;47.550;18.818;2022-12-13T09:48:53;14.80;;;13.23;;
51236;SDS011;37312;47.550;18.818;2022-12-13T09:51:22;13.80;;;12.50;;
51236;SDS011;37312;47.550;18.818;2022-12-13T09:53:50;13.93;;;12.52;;
51236;SDS011;37312;47.550;18.818;2022-12-13T09:56:18;14.00;;;12.45;;
51236;SDS011;37312;47.550;18.818;2022-12-13T09:58:52;14.73;;;13.48;;
51236;SDS011;37312;47.550;18.818;2022-12-13T10:01:23;15.50;;;14.00;;
51236;SDS011;37312;47.550;18.818;2022-12-13T10:03:59;14.48;;;12.98;;
51236;SDS011;37312;47.550;18.818;2022-12-13T10:06:27;15.68;;;14.15;;
51236;SDS011;37312;47.550;18.818;2022-12-13T10:08:56;14.65;;;13.23;;
51236;SDS011;37312;47.550;18.818;2022-12-13T10:11:25;15.02;;;13.55;;
51236;SDS011;37312;47.550;18.818;2022-12-13T10:13:53;14.43;;;12.95;;
51236;SDS011;37312;47.550;18.818;2022-12-13T10:16:30;15.95;;;13.23;;
51236;SDS011;37312;47.550;18.818;2022-12-13T10:19:02;15.25;;;13.60;;
51236;SDS011;37312;47.550;18.818;2022-12-13T10:21:44;14.90;;;13.48;;
51236;SDS011;37312;47.550;18.818;2022-12-13T10:26:44;16.58;;;14.65;;
51236;SDS011;37312;47.550;18.818;2022-12-13T10:29:10;14.82;;;13.40;;
51236;SDS011;37312;47.550;18.818;2022-12-13T10:34:06;14.43;;;12.98;;
51236;SDS011;37312;47.550;18.818;2022-12-13T10:36:46;15.73;;;14.10;;
51236;SDS011;37312;47.550;18.818;2022-12-13T10:39:16;15.30;;;13.85;;
51236;SDS011;37312;47.550;18.818;2022-12-13T10:42:15;14.27;;;12.88;;
51236;SDS011;37312;47.550;18.818;2022-12-13T10:44:43;14.45;;;12.93;;
51236;SDS011;37312;47.550;18.818;2022-12-13T10:54:55;15.57;;;14.07;;
51236;SDS011;37312;47.550;18.818;2022-12-13T10:57:22;18.83;;;15.43;;
51236;SDS011;37312;47.550;18.818;2022-12-13T10:59:49;15.25;;;13.93;;
51236;SDS011;37312;47.550;18.818;2022-12-13T11:05:21;10.93;;;7.78;;
51236;SDS011;37312;47.550;18.818;2022-12-13T11:07:52;11.82;;;6.53;;
51236;SDS011;37312;47.550;18.818;2022-12-13T11:10:28;8.40;;;6.40;;
51236;SDS011;37312;47.550;18.818;2022-12-13T11:12:57;7.30;;;5.55;;
51236;SDS011;37312;47.550;18.818;2022-12-13T11:15:26;13.88;;;4.00;;
51236;SDS011;37312;47.550;18.818;2022-12-13T11:17:57;8.02;;;4.95;;
51236;SDS011;37312;47.550;18.818;2022-12-13T11:20:49;6.55;;;4.93;;
51236;SDS011;37312;47.550;18.818;2022-12-13T11:25:53;5.10;;;3.92;;
51236;SDS011;37312;47.550;18.818;2022-12-13T11:36:49;7.45;;;5.95;;
51236;SDS011;37312;47.550;18.818;2022-12-13T11:39:31;9.43;;;5.90;;
51236;SDS011;37312;47.550;18.818;2022-12-13T11:44:40;7.20;;;5.43;;
51236;SDS011;37312;47.550;18.818;2022-12-13T11:47:12;12.30;;;5.55;;
51236;SDS011;37312;47.550;18.818;2022-12-13T11:49:44;7.93;;;5.40;;
51236;SDS011;37312;47.550;18.818;2022-12-13T12:00:56;10.23;;;5.62;;
51236;SDS011;37312;47.550;18.818;2022-12-13T12:06:06;7.78;;;4.55;;
51236;SDS011;37312;47.550;18.818;2022-12-13T12:16:55;6.18;;;5.60;;
51236;SDS011;37312;47.550;18.818;2022-12-13T12:19:24;8.65;;;7.25;;
51236;SDS011;37312;47.550;18.818;2022-12-13T12:30:47;8.57;;;5.03;;
51236;SDS011;37312;47.550;18.818;2022-12-13T12:39:10;10.82;;;5.72;;
51236;SDS011;37312;47.550;18.818;2022-12-13T12:44:53;10.13;;;7.62;;
51236;SDS011;37312;47.550;18.818;2022-12-13T12:56:36;8.57;;;5.90;;
51236;SDS011;37312;47.550;18.818;2022-12-13T13:04:16;8.80;;;6.87;;
51236;SDS011;37312;47.550;18.818;2022-12-13T13:06:46;7.47;;;6.05;;
51236;SDS011;37312;47.550;18.818;2022-12-13T13:09:20;6.43;;;5.82;;
51236;SDS011;37312;47.550;18.818;2022-12-13T13:11:47;12.55;;;8.57;;
51236;SDS011;37312;47.550;18.818;2022-12-13T13:14:33;10.98;;;5.78;;
51236;SDS011;37312;47.550;18.818;2022-12-13T13:19:44;10.02;;;5.35;;
51236;SDS011;37312;47.550;18.818;2022-12-13T13:22:25;11.68;;;7.78;;
51236;SDS011;37312;47.550;18.818;2022-12-13T13:24:57;8.25;;;5.90;;
51236;SDS011;37312;47.550;18.818;2022-12-13T13:27:42;8.25;;;7.43;;
51236;SDS011;37312;47.550;18.818;2022-12-13T13:30:22;7.75;;;5.30;;
51236;SDS011;37312;47.550;18.818;2022-12-13T13:32:50;7.55;;;6.85;;
51236;SDS011;37312;47.550;18.818;2022-12-13T13:37:57;5.25;;;4.75;;
51236;SDS011;37312;47.550;18.818;2022-12-13T13:40:29;6.43;;;4.82;;
51236;SDS011;37312;47.550;18.818;2022-12-13T13:56:52;7.07;;;5.43;;
51236;SDS011;37312;47.550;18.818;2022-12-13T14:00:04;10.15;;;7.45;;
51236;SDS011;37312;47.550;18.818;2022-12-13T14:02:49;11.93;;;5.95;;
51236;SDS011;37312;47.550;18.818;2022-12-13T14:05:47;7.20;;;6.53;;
51236;SDS011;37312;47.550;18.818;2022-12-13T14:16:30;11.27;;;7.15;;
51236;SDS011;37312;47.550;18.818;2022-12-13T14:30:35;12.27;;;7.72;;
51236;SDS011;37312;47.550;18.818;2022-12-13T14:33:12;9.82;;;7.78;;
51236;SDS011;37312;47.550;18.818;2022-12-13T14:35:54;25.67;;;9.93;;
51236;SDS011;37312;47.550;18.818;2022-12-13T14:38:23;10.05;;;5.80;;
51236;SDS011;37312;47.550;18.818;2022-12-13T14:41:00;7.43;;;6.65;;
51236;SDS011;37312;47.550;18.818;2022-12-13T14:43:28;8.68;;;6.18;;
51236;SDS011;37312;47.550;18.818;2022-12-13T14:46:00;12.68;;;6.87;;
51236;SDS011;37312;47.550;18.818;2022-12-13T14:48:28;10.60;;;7.28;;
51236;SDS011;37312;47.550;18.818;2022-12-13T14:50:59;8.27;;;7.30;;
51236;SDS011;37312;47.550;18.818;2022-12-13T14:53:27;9.05;;;8.13;;
51236;SDS011;37312;47.550;18.818;2022-12-13T14:56:03;10.55;;;6.35;;
51236;SDS011;37312;47.550;18.818;2022-12-13T14:58:29;11.02;;;8.00;;
51236;SDS011;37312;47.550;18.818;2022-12-13T15:03:22;9.20;;;6.70;;
51236;SDS011;37312;47.550;18.818;2022-12-13T15:05:54;10.45;;;7.50;;
51236;SDS011;37312;47.550;18.818;2022-12-13T15:08:22;10.63;;;6.70;;
51236;SDS011;37312;47.550;18.818;2022-12-13T15:19:04;15.70;;;10.43;;
51236;SDS011;37312;47.550;18.818;2022-12-13T15:21:41;16.40;;;11.07;;
51236;SDS011;37312;47.550;18.818;2022-12-13T15:24:21;14.07;;;11.75;;
51236;SDS011;37312;47.550;18.818;2022-12-13T15:26:52;14.85;;;9.95;;
51236;SDS011;37312;47.550;18.818;2022-12-13T15:29:22;15.57;;;8.80;;
51236;SDS011;37312;47.550;18.818;2022-12-13T15:31:51;14.30;;;8.73;;
51236;SDS011;37312;47.550;18.818;2022-12-13T15:34:22;15.98;;;9.30;;
51236;SDS011;37312;47.550;18.818;2022-12-13T15:36:54;8.88;;;6.97;;
51236;SDS011;37312;47.550;18.818;2022-12-13T15:39:22;11.35;;;6.15;;
51236;SDS011;37312;47.550;18.818;2022-12-13T15:41:49;14.43;;;9.82;;
51236;SDS011;37312;47.550;18.818;2022-12-13T15:47:11;9.18;;;7.53;;
51236;SDS011;37312;47.550;18.818;2022-12-13T15:49:40;16.83;;;12.15;;
51236;SDS011;37312;47.550;18.818;2022-12-13T15:54:40;14.85;;;10.02;;
51236;SDS011;37312;47.550;18.818;2022-12-13T15:57:12;13.60;;;11.40;;
51236;SDS011;37312;47.550;18.818;2022-12-13T15:59:41;16.17;;;10.82;;
51236;SDS011;37312;47.550;18.818;2022-12-13T16:02:25;20.45;;;10.90;;
51236;SDS011;37312;47.550;18.818;2022-12-13T16:04:54;17.67;;;10.18;;
51236;SDS011;37312;47.550;18.818;2022-12-13T16:07:33;34.72;;;27.13;;
51236;SDS011;37312;47.550;18.818;2022-12-13T16:10:02;16.62;;;12.68;;
51236;SDS011;37312;47.550;18.818;2022-12-13T16:12:38;21.62;;;13.55;;
51236;SDS011;37312;47.550;18.818;2022-12-13T16:17:52;15.93;;;8.98;;
51236;SDS011;37312;47.550;18.818;2022-12-13T16:20:20;17.05;;;12.35;;
51236;SDS011;37312;47.550;18.818;2022-12-13T16:22:48;30.60;;;21.80;;
51236;SDS011;37312;47.550;18.818;2022-12-13T16:27:42;20.90;;;13.45;;
51236;SDS011;37312;47.550;18.818;2022-12-13T16:30:10;17.40;;;12.52;;
51236;SDS011;37312;47.550;18.818;2022-12-13T16:32:47;26.57;;;14.07;;
51236;SDS011;37312;47.550;18.818;2022-12-13T16:35:14;58.53;;;29.40;;
51236;SDS011;37312;47.550;18.818;2022-12-13T16:37:40;33.03;;;26.20;;
51236;SDS011;37312;47.550;18.818;2022-12-13T16:40:40;23.92;;;20.00;;
51236;SDS011;37312;47.550;18.818;2022-12-13T16:42:59;28.10;;;16.77;;
51236;SDS011;37312;47.550;18.818;2022-12-13T16:45:28;33.05;;;18.02;;
51236;SDS011;37312;47.550;18.818;2022-12-13T16:48:00;30.75;;;17.42;;
51236;SDS011;37312;47.550;18.818;2022-12-13T16:50:26;25.77;;;20.08;;
51236;SDS011;37312;47.550;18.818;2022-12-13T16:52:52;24.80;;;16.62;;
51236;SDS011;37312;47.550;18.818;2022-12-13T16:55:18;94.07;;;53.47;;
51236;SDS011;37312;47.550;18.818;2022-12-13T16:57:53;90.25;;;55.92;;
51236;SDS011;37312;47.550;18.818;2022-12-13T17:00:27;35.05;;;26.87;;
51236;SDS011;37312;47.550;18.818;2022-12-13T17:02:54;127.37;;;73.03;;
51236;SDS011;37312;47.550;18.818;2022-12-13T17:05:21;26.15;;;20.05;;
51236;SDS011;37312;47.550;18.818;2022-12-13T17:07:48;43.97;;;23.90;;
51236;SDS011;37312;47.550;18.818;2022-12-13T17:10:14;30.35;;;18.55;;
51236;SDS011;37312;47.550;18.818;2022-12-13T17:12:41;25.12;;;19.83;;
51236;SDS011;37312;47.550;18.818;2022-12-13T17:15:07;26.98;;;16.52;;
51236;SDS011;37312;47.550;18.818;2022-12-13T17:17:38;21.62;;;15.15;;
51236;SDS011;37312;47.550;18.818;2022-12-13T17:20:06;55.12;;;38.38;;
51236;SDS011;37312;47.550;18.818;2022-12-13T17:22:33;39.27;;;30.27;;
51236;SDS011;37312;47.550;18.818;2022-12-13T17:24:59;26.60;;;17.63;;
51236;SDS011;37312;47.550;18.818;2022-12-13T17:27:25;21.12;;;15.85;;
51236;SDS011;37312;47.550;18.818;2022-12-13T17:29:51;18.23;;;15.20;;
51236;SDS011;37312;47.550;18.818;2022-12-13T17:32:17;22.15;;;13.77;;
51236;SDS011;37312;47.550;18.818;2022-12-13T17:34:43;27.50;;;24.40;;
51236;SDS011;37312;47.550;18.818;2022-12-13T17:37:09;31.85;;;26.90;;
51236;SDS011;37312;47.550;18.818;2022-12-13T17:39:35;26.50;;;17.55;;
51236;SDS011;37312;47.550;18.818;2022-12-13T17:42:01;16.48;;;14.48;;
51236;SDS011;37312;47.550;18.818;2022-12-13T17:44:27;17.95;;;12.60;;
51236;SDS011;37312;47.550;18.818;2022-12-13T17:46:53;14.50;;;11.38;;